createdAt,value
2017-10-16T00:00:42.562Z,11.82
2017-10-16T00:01:42.599Z,11.83
2017-10-16T00:02:42.632Z,11.89
2017-10-16T00:03:42.675Z,11.80
2017-10-16T00:04:42.701Z,11.82
2017-10-16T00:05:42.742Z,11.82
2017-10-16T00:06:42.778Z,11.89
2017-10-16T00:07:42.810Z,11.74
2017-10-16T00:08:42.846Z,11.86
2017-10-16T00:09:42.881Z,11.80
2017-10-16T00:10:42.916Z,11.93
2017-10-16T00:11:42.952Z,11.87
2017-10-16T00:12:42.990Z,11.85
2017-10-16T00:13:43.022Z,11.85
2017-10-16T00:14:43.057Z,11.77
2017-10-16T00:15:43.097Z,11.72
2017-10-16T00:16:43.127Z,11.77
2017-10-16T00:17:43.163Z,11.82
2017-10-16T00:18:43.200Z,11.72
2017-10-16T00:19:43.234Z,11.74
2017-10-16T00:20:43.266Z,11.77
2017-10-16T00:21:43.303Z,11.74
2017-10-16T00:22:43.342Z,11.74
2017-10-16T00:23:43.375Z,11.78
2017-10-16T00:24:43.413Z,11.77
2017-10-16T00:25:43.448Z,11.80
2017-10-16T00:26:43.479Z,11.77
2017-10-16T00:27:43.518Z,11.75
2017-10-16T00:28:43.551Z,11.74
2017-10-16T00:29:43.585Z,11.78
2017-10-16T00:30:43.626Z,11.75
2017-10-16T00:31:43.654Z,11.74
2017-10-16T00:32:43.696Z,11.68
2017-10-16T00:33:43.727Z,11.65
2017-10-16T00:34:43.763Z,11.71
2017-10-16T00:35:43.798Z,11.75
2017-10-16T00:36:43.833Z,11.68
2017-10-16T00:37:43.869Z,11.72
2017-10-16T00:38:43.903Z,11.71
2017-10-16T00:39:43.941Z,11.67
2017-10-16T00:40:43.972Z,11.59
2017-10-16T00:41:44.006Z,11.62
2017-10-16T00:42:44.042Z,11.62
2017-10-16T00:43:44.077Z,11.68
2017-10-16T00:44:44.113Z,11.64
2017-10-16T00:45:44.152Z,11.74
2017-10-16T00:46:44.185Z,11.68
2017-10-16T00:47:44.218Z,11.72
2017-10-16T00:48:44.253Z,11.72
2017-10-16T00:49:44.295Z,11.77
2017-10-16T00:50:44.326Z,11.78
2017-10-16T00:51:44.359Z,11.87
2017-10-16T00:52:44.393Z,11.82
2017-10-16T00:53:44.428Z,11.77
2017-10-16T00:54:44.463Z,11.83
2017-10-16T00:55:44.501Z,11.83
2017-10-16T00:56:44.534Z,11.82
2017-10-16T00:57:44.573Z,11.78
2017-10-16T00:58:44.606Z,11.77
2017-10-16T00:59:44.638Z,11.86
2017-10-16T01:00:44.676Z,11.72
2017-10-16T01:01:44.708Z,11.85
2017-10-16T01:02:44.745Z,11.77
2017-10-16T01:03:44.785Z,11.71
2017-10-16T01:04:44.814Z,11.77
2017-10-16T01:05:44.851Z,11.74
2017-10-16T01:06:44.892Z,11.74
2017-10-16T01:07:44.923Z,11.78
2017-10-16T01:08:44.954Z,11.70
2017-10-16T01:09:44.992Z,11.68
2017-10-16T01:10:45.046Z,11.68
2017-10-16T01:11:45.061Z,11.70
2017-10-16T01:12:45.094Z,11.65
2017-10-16T01:13:45.137Z,11.67
2017-10-16T01:14:45.169Z,11.64
2017-10-16T01:15:45.202Z,11.67
2017-10-16T01:16:45.232Z,11.65
2017-10-16T01:17:45.269Z,11.65
2017-10-16T01:18:45.305Z,11.65
2017-10-16T01:19:45.342Z,11.62
2017-10-16T01:20:45.377Z,11.67
2017-10-16T01:21:45.416Z,11.67
2017-10-16T01:22:45.457Z,11.65
2017-10-16T01:23:45.484Z,11.68
2017-10-16T01:24:45.516Z,11.65
2017-10-16T01:25:45.553Z,11.59
2017-10-16T01:26:45.587Z,11.62
2017-10-16T01:27:45.628Z,11.62
2017-10-16T01:28:45.661Z,11.59
2017-10-16T01:29:45.694Z,11.62
2017-10-16T01:30:45.728Z,11.59
2017-10-16T01:31:45.762Z,11.52
2017-10-16T01:32:45.800Z,11.53
2017-10-16T01:33:45.831Z,11.50
2017-10-16T01:34:45.868Z,11.56
2017-10-16T01:35:45.902Z,11.56
2017-10-16T01:36:45.936Z,11.52
2017-10-16T01:37:45.974Z,11.54
2017-10-16T01:38:46.009Z,11.50
2017-10-16T01:39:46.048Z,11.56
2017-10-16T01:40:46.075Z,11.50
2017-10-16T01:41:46.112Z,11.49
2017-10-16T01:42:46.148Z,11.49
2017-10-16T01:43:46.183Z,11.53
2017-10-16T01:44:46.216Z,11.50
2017-10-16T01:45:46.252Z,11.43
2017-10-16T01:46:46.286Z,11.52
2017-10-16T01:47:46.326Z,11.47
2017-10-16T01:48:46.356Z,11.50
2017-10-16T01:49:46.391Z,11.46
2017-10-16T01:50:46.428Z,11.36
2017-10-16T01:51:46.461Z,11.36
2017-10-16T01:52:46.497Z,11.39
2017-10-16T01:53:46.545Z,11.39
2017-10-16T01:54:46.567Z,11.38
2017-10-16T01:55:46.605Z,11.38
2017-10-16T01:56:46.637Z,11.39
2017-10-16T01:57:46.672Z,11.28
2017-10-16T01:58:46.705Z,11.25
2017-10-16T01:59:46.748Z,11.28
2017-10-16T02:00:46.773Z,11.21
2017-10-16T02:01:46.814Z,11.24
2017-10-16T02:02:46.844Z,11.21
2017-10-16T02:03:46.879Z,11.20
2017-10-16T02:04:46.915Z,11.20
2017-10-16T02:05:46.950Z,11.17
2017-10-16T02:06:46.982Z,11.16
2017-10-16T02:07:47.018Z,11.13
2017-10-16T02:08:47.057Z,11.11
2017-10-16T02:09:47.090Z,11.07
2017-10-16T02:10:47.131Z,11.03
2017-10-16T02:11:47.158Z,11.11
2017-10-16T02:12:47.201Z,10.98
2017-10-16T02:13:47.237Z,10.99
2017-10-16T02:14:47.272Z,10.98
2017-10-16T02:15:47.297Z,10.94
2017-10-16T02:16:47.333Z,10.95
2017-10-16T02:17:47.373Z,10.98
2017-10-16T02:18:47.403Z,11.01
2017-10-16T02:19:47.441Z,10.95
2017-10-16T02:20:47.472Z,10.91
2017-10-16T02:21:47.504Z,10.94
2017-10-16T02:22:47.541Z,10.95
2017-10-16T02:23:47.576Z,10.91
2017-10-16T02:24:47.607Z,10.89
2017-10-16T02:25:47.648Z,10.84
2017-10-16T02:26:47.678Z,10.89
2017-10-16T02:27:47.724Z,10.84
2017-10-16T02:28:47.749Z,10.92
2017-10-16T02:29:47.783Z,10.94
2017-10-16T02:30:47.815Z,10.94
2017-10-16T02:31:47.851Z,10.94
2017-10-16T02:32:47.888Z,10.99
2017-10-16T02:33:47.921Z,10.94
2017-10-16T02:34:47.954Z,10.91
2017-10-16T02:35:47.988Z,11.01
2017-10-16T02:36:48.024Z,10.98
2017-10-16T02:37:48.058Z,11.01
2017-10-16T02:38:48.092Z,10.99
2017-10-16T02:39:48.127Z,10.96
2017-10-16T02:40:48.164Z,10.98
2017-10-16T02:41:48.198Z,11.02
2017-10-16T02:42:48.234Z,11.07
2017-10-16T02:43:48.264Z,11.02
2017-10-16T02:44:48.303Z,11.10
2017-10-16T02:45:48.337Z,11.03
2017-10-16T02:46:48.368Z,11.07
2017-10-16T02:47:48.404Z,11.06
2017-10-16T02:48:48.442Z,11.03
2017-10-16T02:49:48.474Z,10.99
2017-10-16T02:50:48.505Z,11.01
2017-10-16T02:51:48.542Z,11.01
2017-10-16T02:52:48.579Z,11.03
2017-10-16T02:53:48.612Z,10.95
2017-10-16T02:54:48.645Z,11.07
2017-10-16T02:55:48.683Z,11.02
2017-10-16T02:56:48.718Z,11.02
2017-10-16T02:57:48.752Z,11.03
2017-10-16T02:58:48.788Z,10.95
2017-10-16T02:59:48.822Z,10.94
2017-10-16T03:00:48.852Z,10.92
2017-10-16T03:01:48.889Z,10.92
2017-10-16T03:02:48.925Z,10.92
2017-10-16T03:03:48.955Z,10.92
2017-10-16T03:04:48.988Z,10.84
2017-10-16T03:05:49.025Z,10.84
2017-10-16T03:06:49.065Z,10.94
2017-10-16T03:07:49.093Z,10.92
2017-10-16T03:08:49.127Z,10.92
2017-10-16T03:09:49.162Z,10.91
2017-10-16T03:10:49.201Z,10.77
2017-10-16T03:11:49.232Z,10.92
2017-10-16T03:12:49.266Z,10.84
2017-10-16T03:13:49.300Z,10.83
2017-10-16T03:14:49.334Z,10.84
2017-10-16T03:15:49.370Z,10.88
2017-10-16T03:16:49.403Z,10.92
2017-10-16T03:17:49.441Z,10.80
2017-10-16T03:18:49.478Z,10.86
2017-10-16T03:19:49.506Z,10.74
2017-10-16T03:20:49.539Z,10.74
2017-10-16T03:21:49.574Z,10.78
2017-10-16T03:22:49.610Z,10.76
2017-10-16T03:23:49.645Z,10.74
2017-10-16T03:24:49.677Z,10.83
2017-10-16T03:25:49.714Z,10.77
2017-10-16T03:26:49.749Z,10.78
2017-10-16T03:27:49.787Z,10.74
2017-10-16T03:28:49.815Z,10.76
2017-10-16T03:29:49.858Z,10.84
2017-10-16T03:30:49.888Z,10.78
2017-10-16T03:31:49.926Z,10.91
2017-10-16T03:32:49.954Z,10.74
2017-10-16T03:33:49.996Z,10.80
2017-10-16T03:34:50.024Z,10.77
2017-10-16T03:35:50.057Z,10.81
2017-10-16T03:36:50.089Z,10.76
2017-10-16T03:37:50.124Z,10.78
2017-10-16T03:38:50.162Z,10.76
2017-10-16T03:39:50.192Z,10.71
2017-10-16T03:40:50.227Z,10.77
2017-10-16T03:41:50.263Z,10.77
2017-10-16T03:42:50.297Z,10.84
2017-10-16T03:43:50.331Z,10.73
2017-10-16T03:44:50.371Z,10.71
2017-10-16T03:45:50.402Z,10.83
2017-10-16T03:46:50.433Z,10.74
2017-10-16T03:47:50.467Z,10.73
2017-10-16T03:48:50.503Z,10.78
2017-10-16T03:49:50.539Z,10.74
2017-10-16T03:50:50.572Z,10.74
2017-10-16T03:51:50.609Z,10.78
2017-10-16T03:52:50.638Z,10.73
2017-10-16T03:53:50.678Z,10.71
2017-10-16T03:54:50.707Z,10.78
2017-10-16T03:55:50.748Z,10.80
2017-10-16T03:56:50.788Z,10.78
2017-10-16T03:57:50.816Z,10.74
2017-10-16T03:58:50.846Z,10.76
2017-10-16T03:59:50.881Z,10.80
2017-10-16T04:00:50.947Z,10.81
2017-10-16T04:01:50.946Z,10.71
2017-10-16T04:02:50.983Z,10.71
2017-10-16T04:03:51.022Z,10.83
2017-10-16T04:04:51.051Z,10.77
2017-10-16T04:05:51.089Z,10.74
2017-10-16T04:06:51.122Z,10.81
2017-10-16T04:07:51.153Z,10.65
2017-10-16T04:08:51.189Z,10.68
2017-10-16T04:09:51.221Z,10.68
2017-10-16T04:10:51.256Z,10.60
2017-10-16T04:11:51.304Z,10.60
2017-10-16T04:12:51.328Z,10.63
2017-10-16T04:13:51.358Z,10.63
2017-10-16T04:14:51.391Z,10.56
2017-10-16T04:15:51.436Z,10.59
2017-10-16T04:16:51.462Z,10.59
2017-10-16T04:17:51.501Z,10.47
2017-10-16T04:18:51.527Z,10.51
2017-10-16T04:19:51.567Z,10.60
2017-10-16T04:20:51.600Z,10.55
2017-10-16T04:21:51.632Z,10.51
2017-10-16T04:22:51.664Z,10.47
2017-10-16T04:23:51.706Z,10.55
2017-10-16T04:24:51.742Z,10.55
2017-10-16T04:25:51.768Z,10.53
2017-10-16T04:26:51.801Z,10.56
2017-10-16T04:27:51.841Z,10.56
2017-10-16T04:28:51.871Z,10.52
2017-10-16T04:29:51.903Z,10.58
2017-10-16T04:30:51.941Z,10.51
2017-10-16T04:31:51.974Z,10.58
2017-10-16T04:32:52.010Z,10.53
2017-10-16T04:33:52.049Z,10.55
2017-10-16T04:34:52.081Z,10.53
2017-10-16T04:35:52.116Z,10.51
2017-10-16T04:36:52.143Z,10.58
2017-10-16T04:37:52.181Z,10.55
2017-10-16T04:38:52.218Z,10.56
2017-10-16T04:39:52.255Z,10.56
2017-10-16T04:40:52.282Z,10.55
2017-10-16T04:41:52.317Z,10.52
2017-10-16T04:42:52.350Z,10.55
2017-10-16T04:43:52.387Z,10.53
2017-10-16T04:44:52.417Z,10.51
2017-10-16T04:45:52.457Z,10.47
2017-10-16T04:46:52.485Z,10.58
2017-10-16T04:47:52.520Z,10.53
2017-10-16T04:48:52.558Z,10.44
2017-10-16T04:49:52.590Z,10.53
2017-10-16T04:50:52.622Z,10.55
2017-10-16T04:51:52.660Z,10.52
2017-10-16T04:52:52.694Z,10.58
2017-10-16T04:53:52.729Z,10.51
2017-10-16T04:54:52.757Z,10.46
2017-10-16T04:55:52.794Z,10.46
2017-10-16T04:56:52.829Z,10.47
2017-10-16T04:57:52.865Z,10.53
2017-10-16T04:58:52.891Z,10.51
2017-10-16T04:59:52.947Z,10.59
2017-10-16T05:00:52.960Z,10.65
2017-10-16T05:01:52.996Z,10.46
2017-10-16T05:02:53.028Z,10.55
2017-10-16T05:03:53.067Z,10.59
2017-10-16T05:04:53.101Z,10.63
2017-10-16T05:05:53.130Z,10.65
2017-10-16T05:06:53.167Z,10.60
2017-10-16T05:07:53.220Z,10.62
2017-10-16T05:08:53.242Z,10.56
2017-10-16T05:09:53.269Z,10.58
2017-10-16T05:10:53.300Z,10.53
2017-10-16T05:11:53.340Z,10.58
2017-10-16T05:12:53.375Z,10.55
2017-10-16T05:13:53.405Z,10.52
2017-10-16T05:14:53.437Z,10.53
2017-10-16T05:15:53.528Z,10.56
2017-10-16T05:16:53.507Z,10.62
2017-10-16T05:17:53.542Z,10.60
2017-10-16T05:18:53.575Z,10.53
2017-10-16T05:19:53.612Z,10.56
2017-10-16T05:20:53.650Z,10.53
2017-10-16T05:21:53.679Z,10.62
2017-10-16T05:22:53.717Z,10.62
2017-10-16T05:23:53.750Z,10.51
2017-10-16T05:24:53.784Z,10.46
2017-10-16T05:25:53.816Z,10.51
2017-10-16T05:26:53.849Z,10.59
2017-10-16T05:27:53.882Z,10.56
2017-10-16T05:28:53.919Z,10.56
2017-10-16T05:29:53.945Z,10.43
2017-10-16T05:30:53.985Z,10.55
2017-10-16T05:31:54.016Z,10.53
2017-10-16T05:32:54.050Z,10.51
2017-10-16T05:33:54.082Z,10.52
2017-10-16T05:34:54.121Z,10.47
2017-10-16T05:35:54.182Z,10.55
2017-10-16T05:36:54.254Z,10.46
2017-10-16T05:37:54.219Z,10.52
2017-10-16T05:38:54.275Z,10.43
2017-10-16T05:39:54.299Z,10.42
2017-10-16T05:40:54.324Z,10.42
2017-10-16T05:41:54.360Z,10.44
2017-10-16T05:42:54.391Z,10.39
2017-10-16T05:43:54.422Z,10.40
2017-10-16T05:44:54.458Z,10.40
2017-10-16T05:45:54.494Z,10.34
2017-10-16T05:46:54.533Z,10.26
2017-10-16T05:47:54.560Z,10.26
2017-10-16T05:48:54.604Z,10.26
2017-10-16T05:49:54.628Z,10.25
2017-10-16T05:50:54.665Z,10.34
2017-10-16T05:51:54.701Z,10.36
2017-10-16T05:52:54.731Z,10.47
2017-10-16T05:53:54.766Z,10.55
2017-10-16T05:54:54.894Z,10.56
2017-10-16T05:55:54.830Z,10.58
2017-10-16T05:56:54.867Z,10.58
2017-10-16T05:57:54.903Z,10.71
2017-10-16T05:58:54.937Z,10.66
2017-10-16T05:59:54.975Z,10.76
2017-10-16T06:00:54.998Z,10.76
2017-10-16T06:01:55.039Z,10.80
2017-10-16T06:02:55.081Z,10.77
2017-10-16T06:03:55.101Z,10.78
2017-10-16T06:04:55.137Z,10.71
2017-10-16T06:05:55.174Z,10.78
2017-10-16T06:06:55.213Z,10.81
2017-10-16T06:07:55.241Z,10.74
2017-10-16T06:08:55.292Z,10.81
2017-10-16T06:09:55.383Z,10.78
2017-10-16T06:10:55.343Z,10.74
2017-10-16T06:11:55.376Z,10.76
2017-10-16T06:12:55.416Z,10.76
2017-10-16T06:13:55.448Z,10.76
2017-10-16T06:14:55.476Z,10.74
2017-10-16T06:15:55.519Z,10.80
2017-10-16T06:16:55.552Z,10.84
2017-10-16T06:17:55.579Z,10.74
2017-10-16T06:18:55.615Z,10.80
2017-10-16T06:19:55.662Z,10.88
2017-10-16T06:20:55.702Z,10.86
2017-10-16T06:21:55.717Z,10.92
2017-10-16T06:22:55.792Z,10.95
2017-10-16T06:23:55.823Z,10.95
2017-10-16T06:24:55.845Z,10.98
2017-10-16T06:25:55.871Z,10.94
2017-10-16T06:26:55.979Z,10.95
2017-10-16T06:27:55.924Z,10.99
2017-10-16T06:28:55.958Z,10.98
2017-10-16T06:29:56.005Z,11.01
2017-10-16T06:30:56.049Z,10.96
2017-10-16T06:31:56.064Z,10.96
2017-10-16T06:32:56.118Z,10.99
2017-10-16T06:33:56.135Z,11.06
2017-10-16T06:34:56.162Z,10.96
2017-10-16T06:35:56.226Z,11.07
2017-10-16T06:36:56.228Z,11.03
2017-10-16T06:37:56.268Z,11.03
2017-10-16T06:38:56.303Z,11.10
2017-10-16T06:39:56.335Z,11.10
2017-10-16T06:40:56.375Z,11.09
2017-10-16T06:41:56.455Z,11.16
2017-10-16T06:42:56.442Z,11.16
2017-10-16T06:43:56.556Z,11.14
2017-10-16T06:44:56.511Z,11.14
2017-10-16T06:45:56.536Z,11.17
2017-10-16T06:46:56.580Z,11.16
2017-10-16T06:47:56.607Z,11.14
2017-10-16T06:48:56.637Z,11.28
2017-10-16T06:49:56.674Z,11.29
2017-10-16T06:50:56.709Z,11.28
2017-10-16T06:51:56.751Z,11.34
2017-10-16T06:52:56.834Z,11.36
2017-10-16T06:53:56.813Z,11.39
2017-10-16T06:54:56.853Z,11.32
2017-10-16T06:55:56.885Z,11.38
2017-10-16T06:56:56.915Z,11.43
2017-10-16T06:57:56.964Z,11.35
2017-10-16T06:58:56.991Z,11.41
2017-10-16T06:59:57.019Z,11.39
2017-10-16T07:00:57.055Z,11.50
2017-10-16T07:01:57.088Z,11.52
2017-10-16T07:02:57.135Z,11.50
2017-10-16T07:03:57.168Z,11.62
2017-10-16T07:04:57.292Z,11.70
2017-10-16T07:05:57.230Z,11.72
2017-10-16T07:06:57.261Z,11.72
2017-10-16T07:07:57.294Z,11.74
2017-10-16T07:08:57.355Z,11.80
2017-10-16T07:09:57.385Z,11.80
2017-10-16T07:10:57.400Z,11.77
2017-10-16T07:11:57.443Z,11.83
2017-10-16T07:12:57.470Z,11.86
2017-10-16T07:13:57.510Z,11.87
2017-10-16T07:14:57.544Z,11.89
2017-10-16T07:15:57.579Z,11.96
2017-10-16T07:16:57.614Z,12.11
2017-10-16T07:17:57.645Z,12.12
2017-10-16T07:18:57.732Z,12.20
2017-10-16T07:19:57.721Z,12.27
2017-10-16T07:20:57.768Z,12.30
2017-10-16T07:21:57.783Z,12.44
2017-10-16T07:22:57.825Z,12.52
2017-10-16T07:23:57.857Z,12.62
2017-10-16T07:24:57.889Z,12.60
2017-10-16T07:25:57.927Z,12.70
2017-10-16T07:26:58.295Z,12.87
2017-10-16T07:27:58.000Z,12.87
2017-10-16T07:28:58.068Z,13.09
2017-10-16T07:29:58.072Z,13.22
2017-10-16T07:30:58.108Z,13.27
2017-10-16T07:31:58.235Z,13.27
2017-10-16T07:33:00.762Z,13.29
2017-10-16T07:33:58.349Z,13.40
2017-10-16T07:34:58.247Z,13.49
2017-10-16T07:35:58.394Z,13.51
2017-10-16T07:36:58.334Z,13.56
2017-10-16T07:37:58.352Z,13.54
2017-10-16T07:38:58.388Z,13.56
2017-10-16T07:39:58.450Z,13.67
2017-10-16T07:40:58.486Z,13.71
2017-10-16T07:41:58.502Z,13.76
2017-10-16T07:42:58.579Z,13.77
2017-10-16T07:43:58.615Z,13.81
2017-10-16T07:44:58.840Z,13.91
2017-10-16T07:45:58.833Z,13.98
2017-10-16T07:46:58.702Z,13.95
2017-10-16T07:47:58.717Z,14.04
2017-10-16T07:48:58.770Z,14.12
2017-10-16T07:49:59.728Z,14.13
2017-10-16T07:50:58.825Z,14.21
2017-10-16T07:51:58.872Z,14.28
2017-10-16T07:52:59.016Z,14.37
2017-10-16T07:53:58.929Z,14.46
2017-10-16T07:54:59.081Z,14.47
2017-10-16T07:55:59.136Z,14.61
2017-10-16T07:56:59.123Z,14.71
2017-10-16T07:57:59.106Z,14.72
2017-10-16T07:58:59.217Z,14.87
2017-10-16T07:59:59.231Z,14.90
2017-10-16T08:00:59.222Z,15.01
2017-10-16T08:01:59.264Z,15.06
2017-10-16T08:02:59.327Z,15.26
2017-10-16T08:03:59.392Z,15.27
2017-10-16T08:04:59.394Z,15.27
2017-10-16T08:05:59.398Z,15.31
2017-10-16T08:06:59.426Z,15.41
2017-10-16T08:07:59.473Z,15.52
2017-10-16T08:08:59.611Z,15.57
2017-10-16T08:09:59.553Z,15.64
2017-10-16T08:10:59.590Z,15.64
2017-10-16T08:11:59.604Z,15.74
2017-10-16T08:12:59.662Z,15.79
2017-10-16T08:13:59.707Z,15.85
2017-10-16T08:14:59.723Z,15.86
2017-10-16T08:15:59.762Z,15.92
2017-10-16T08:16:59.812Z,15.97
2017-10-16T08:17:59.885Z,15.96
2017-10-16T08:19:00.005Z,16.03
2017-10-16T08:20:00.586Z,16.04
2017-10-16T08:21:01.200Z,16.09
2017-10-16T08:21:59.984Z,16.09
2017-10-16T08:23:00.082Z,16.16
2017-10-16T08:24:00.063Z,16.25
2017-10-16T08:25:00.100Z,16.33
2017-10-16T08:26:00.186Z,16.31
2017-10-16T08:27:00.460Z,16.42
2017-10-16T08:28:00.216Z,16.40
2017-10-16T08:29:00.317Z,16.49
2017-10-16T08:30:00.266Z,16.53
2017-10-16T08:31:00.311Z,16.59
2017-10-16T08:32:00.356Z,16.67
2017-10-16T08:33:00.382Z,16.62
2017-10-16T08:34:00.431Z,16.74
2017-10-16T08:35:00.454Z,16.70
2017-10-16T08:36:00.583Z,16.78
2017-10-16T08:37:00.629Z,16.92
2017-10-16T08:38:00.657Z,16.86
2017-10-16T08:39:00.708Z,16.99
2017-10-16T08:40:00.644Z,16.99
2017-10-16T08:41:00.688Z,17.13
2017-10-16T08:42:00.731Z,17.14
2017-10-16T08:43:00.767Z,17.22
2017-10-16T08:44:00.931Z,17.29
2017-10-16T08:45:00.843Z,17.33
2017-10-16T08:46:00.877Z,17.47
2017-10-16T08:47:00.912Z,17.46
2017-10-16T08:48:00.950Z,17.46
2017-10-16T08:49:01.006Z,17.59
2017-10-16T08:50:01.071Z,17.62
2017-10-16T08:51:01.071Z,17.63
2017-10-16T08:52:01.108Z,17.79
2017-10-16T08:53:01.141Z,17.85
2017-10-16T08:54:01.185Z,17.97
2017-10-16T08:55:01.241Z,17.97
2017-10-16T08:56:01.304Z,17.99
2017-10-16T08:57:01.298Z,18.03
2017-10-16T08:58:01.531Z,18.09
2017-10-16T08:59:01.377Z,18.00
2017-10-16T09:00:01.416Z,18.04
2017-10-16T09:01:01.454Z,18.04
2017-10-16T09:02:01.497Z,18.12
2017-10-16T09:03:01.539Z,18.09
2017-10-16T09:04:01.577Z,18.25
2017-10-16T09:05:01.613Z,18.22
2017-10-16T09:06:01.653Z,18.21
2017-10-16T09:07:01.719Z,18.29
2017-10-16T09:08:01.729Z,18.28
2017-10-16T09:09:01.772Z,18.28
2017-10-16T09:10:01.808Z,18.28
2017-10-16T09:11:01.847Z,18.21
2017-10-16T09:12:01.990Z,18.21
2017-10-16T09:13:01.939Z,18.28
2017-10-16T09:14:02.021Z,18.31
2017-10-16T09:15:02.007Z,18.37
2017-10-16T09:16:02.048Z,18.36
2017-10-16T09:17:02.149Z,18.39
2017-10-16T09:18:02.136Z,18.37
2017-10-16T09:19:02.165Z,18.39
2017-10-16T09:20:02.232Z,18.37
2017-10-16T09:21:02.245Z,18.42
2017-10-16T09:22:02.532Z,18.49
2017-10-16T09:23:02.328Z,18.49
2017-10-16T09:24:02.366Z,18.57
2017-10-16T09:25:02.408Z,18.49
2017-10-16T09:26:02.455Z,18.54
2017-10-16T09:27:02.502Z,18.58
2017-10-16T09:28:02.542Z,18.55
2017-10-16T09:29:02.561Z,18.58
2017-10-16T09:30:02.605Z,18.62
2017-10-16T09:31:02.647Z,18.55
2017-10-16T09:32:02.691Z,18.65
2017-10-16T09:33:02.719Z,18.62
2017-10-16T09:34:02.765Z,18.61
2017-10-16T09:35:02.804Z,18.67
2017-10-16T09:36:02.838Z,18.73
2017-10-16T09:37:02.892Z,18.74
2017-10-16T09:38:03.035Z,18.83
2017-10-16T09:39:03.021Z,18.90
2017-10-16T09:40:03.017Z,18.83
2017-10-16T09:41:03.041Z,18.83
2017-10-16T09:42:03.078Z,18.87
2017-10-16T09:43:03.274Z,18.91
2017-10-16T09:44:03.161Z,18.92
2017-10-16T09:45:03.196Z,18.98
2017-10-16T09:46:03.244Z,18.97
2017-10-16T09:47:03.323Z,19.05
2017-10-16T09:48:03.318Z,19.17
2017-10-16T09:49:03.358Z,19.18
2017-10-16T09:50:03.398Z,19.20
2017-10-16T09:51:03.440Z,19.17
2017-10-16T09:52:03.478Z,19.24
2017-10-16T09:53:03.521Z,19.35
2017-10-16T09:54:03.562Z,19.31
2017-10-16T09:55:03.766Z,19.39
2017-10-16T09:56:03.694Z,19.43
2017-10-16T09:57:03.685Z,19.40
2017-10-16T09:58:03.720Z,19.40
2017-10-16T09:59:03.766Z,19.46
2017-10-16T10:00:03.803Z,19.43
2017-10-16T10:01:03.862Z,19.48
2017-10-16T10:02:03.887Z,19.53
2017-10-16T10:03:03.935Z,19.55
2017-10-16T10:04:03.984Z,19.51
2017-10-16T10:05:04.069Z,19.55
2017-10-16T10:06:04.068Z,19.50
2017-10-16T10:07:04.084Z,19.54
2017-10-16T10:08:04.133Z,19.63
2017-10-16T10:09:04.170Z,19.65
2017-10-16T10:10:04.208Z,19.69
2017-10-16T10:11:04.253Z,19.69
2017-10-16T10:12:04.290Z,19.70
2017-10-16T10:13:04.419Z,19.73
2017-10-16T10:14:04.394Z,19.84
2017-10-16T10:15:04.411Z,19.75
2017-10-16T10:16:04.487Z,19.75
2017-10-16T10:17:04.489Z,19.79
2017-10-16T10:18:04.569Z,19.68
2017-10-16T10:19:04.573Z,19.73
2017-10-16T10:20:04.610Z,19.76
2017-10-16T10:21:04.661Z,19.76
2017-10-16T10:22:04.692Z,19.83
2017-10-16T10:23:04.748Z,19.80
2017-10-16T10:24:04.796Z,19.80
2017-10-16T10:25:04.815Z,19.83
2017-10-16T10:26:04.858Z,19.78
2017-10-16T10:27:04.899Z,19.80
2017-10-16T10:28:04.940Z,19.76
2017-10-16T10:29:04.989Z,19.72
2017-10-16T10:30:05.036Z,19.90
2017-10-16T10:31:05.069Z,19.90
2017-10-16T10:32:05.105Z,19.84
2017-10-16T10:33:05.143Z,19.97
2017-10-16T10:34:05.188Z,19.90
2017-10-16T10:35:05.226Z,19.91
2017-10-16T10:36:05.275Z,19.91
2017-10-16T10:37:05.308Z,19.97
2017-10-16T10:38:05.348Z,20.05
2017-10-16T10:39:05.395Z,19.95
2017-10-16T10:40:05.439Z,19.98
2017-10-16T10:41:05.568Z,19.97
2017-10-16T10:42:05.520Z,19.98
2017-10-16T10:43:05.576Z,19.95
2017-10-16T10:44:05.631Z,19.95
2017-10-16T10:45:05.636Z,19.94
2017-10-16T10:46:05.681Z,20.00
2017-10-16T10:47:05.722Z,19.94
2017-10-16T10:48:05.772Z,19.93
2017-10-16T10:49:05.798Z,20.05
2017-10-16T10:50:05.845Z,20.05
2017-10-16T10:51:05.944Z,20.00
2017-10-16T10:52:05.965Z,19.98
2017-10-16T10:53:05.970Z,20.03
2017-10-16T10:54:06.021Z,20.03
2017-10-16T10:55:06.054Z,20.03
2017-10-16T10:56:06.090Z,20.05
2017-10-16T10:57:06.197Z,20.10
2017-10-16T10:58:06.171Z,20.10
2017-10-16T10:59:06.213Z,20.09
2017-10-16T11:00:06.258Z,20.16
2017-10-16T11:01:06.296Z,20.24
2017-10-16T11:02:06.340Z,20.18
2017-10-16T11:03:06.454Z,20.20
2017-10-16T11:04:06.427Z,20.25
2017-10-16T11:05:06.479Z,20.27
2017-10-16T11:06:06.572Z,20.30
2017-10-16T11:07:06.583Z,20.23
2017-10-16T11:08:06.681Z,20.30
2017-10-16T11:09:06.647Z,20.30
2017-10-16T11:10:06.668Z,20.25
2017-10-16T11:11:06.711Z,20.23
2017-10-16T11:12:06.757Z,20.24
2017-10-16T11:13:06.865Z,20.31
2017-10-16T11:14:06.862Z,20.30
2017-10-16T11:15:06.881Z,20.27
2017-10-16T11:16:06.921Z,20.38
2017-10-16T11:17:07.011Z,20.33
2017-10-16T11:18:07.011Z,20.42
2017-10-16T11:19:07.040Z,20.46
2017-10-16T11:20:07.084Z,20.38
2017-10-16T11:21:07.122Z,20.47
2017-10-16T11:22:07.168Z,20.49
2017-10-16T11:23:07.254Z,20.54
2017-10-16T11:24:07.247Z,20.46
2017-10-16T11:25:07.288Z,20.47
2017-10-16T11:26:07.333Z,20.62
2017-10-16T11:27:07.433Z,20.54
2017-10-16T11:28:07.422Z,20.62
2017-10-16T11:29:07.462Z,20.61
2017-10-16T11:30:07.497Z,20.61
2017-10-16T11:31:07.554Z,20.62
2017-10-16T11:32:07.586Z,20.61
2017-10-16T11:33:09.444Z,20.61
2017-10-16T11:34:07.676Z,20.66
2017-10-16T11:35:07.782Z,20.74
2017-10-16T11:36:07.755Z,20.77
2017-10-16T11:37:07.794Z,20.69
2017-10-16T11:38:07.831Z,20.76
2017-10-16T11:39:07.881Z,20.74
2017-10-16T11:40:07.918Z,20.80
2017-10-16T11:41:07.968Z,20.80
2017-10-16T11:42:08.008Z,20.72
2017-10-16T11:43:08.042Z,20.81
2017-10-16T11:44:08.146Z,20.80
2017-10-16T11:45:08.126Z,20.83
2017-10-16T11:46:08.292Z,20.91
2017-10-16T11:47:08.231Z,20.95
2017-10-16T11:48:08.253Z,20.93
2017-10-16T11:49:08.296Z,21.05
2017-10-16T11:50:08.342Z,21.04
2017-10-16T11:51:08.373Z,21.09
2017-10-16T11:52:08.418Z,21.08
2017-10-16T11:53:08.467Z,21.11
2017-10-16T11:54:08.503Z,21.01
2017-10-16T11:55:08.541Z,21.04
2017-10-16T11:56:08.582Z,21.09
2017-10-16T11:57:08.629Z,21.04
2017-10-16T11:58:08.724Z,21.09
2017-10-16T11:59:08.726Z,21.14
2017-10-16T12:00:08.764Z,21.17
2017-10-16T12:01:08.810Z,21.19
2017-10-16T12:02:08.848Z,21.20
2017-10-16T12:03:08.889Z,21.19
2017-10-16T12:04:08.949Z,21.20
2017-10-16T12:05:08.965Z,21.23
2017-10-16T12:06:09.022Z,21.30
2017-10-16T12:07:09.114Z,21.19
2017-10-16T12:08:09.092Z,21.27
2017-10-16T12:09:09.132Z,21.26
2017-10-16T12:10:09.176Z,21.27
2017-10-16T12:11:09.222Z,21.36
2017-10-16T12:12:09.259Z,21.38
2017-10-16T12:13:09.309Z,21.24
2017-10-16T12:14:09.341Z,21.36
2017-10-16T12:15:09.390Z,21.32
2017-10-16T12:16:09.429Z,21.36
2017-10-16T12:17:09.470Z,21.36
2017-10-16T12:18:09.513Z,21.44
2017-10-16T12:19:10.274Z,21.35
2017-10-16T12:20:09.599Z,21.44
2017-10-16T12:21:09.734Z,21.36
2017-10-16T12:22:09.678Z,21.44
2017-10-16T12:23:11.262Z,21.48
2017-10-16T12:24:09.810Z,21.45
2017-10-16T12:25:09.818Z,21.56
2017-10-16T12:26:09.871Z,21.53
2017-10-16T12:27:09.893Z,21.63
2017-10-16T12:28:09.935Z,21.59
2017-10-16T12:29:09.984Z,21.66
2017-10-16T12:30:10.021Z,21.61
2017-10-16T12:31:10.068Z,21.66
2017-10-16T12:32:10.114Z,21.66
2017-10-16T12:33:10.154Z,21.76
2017-10-16T12:34:10.192Z,21.78
2017-10-16T12:35:10.306Z,21.74
2017-10-16T12:36:10.277Z,21.74
2017-10-16T12:37:10.339Z,21.72
2017-10-16T12:38:10.378Z,21.81
2017-10-16T12:39:10.404Z,21.82
2017-10-16T12:40:10.446Z,21.79
2017-10-16T12:41:10.532Z,21.79
2017-10-16T12:42:10.536Z,21.81
2017-10-16T12:43:10.609Z,21.88
2017-10-16T12:44:10.617Z,21.81
2017-10-16T12:45:10.660Z,21.64
2017-10-16T12:46:11.701Z,21.79
2017-10-16T12:47:10.747Z,21.81
2017-10-16T12:48:10.790Z,21.79
2017-10-16T12:49:10.826Z,21.82
2017-10-16T12:50:10.869Z,21.88
2017-10-16T12:51:10.914Z,21.92
2017-10-16T12:52:10.958Z,21.83
2017-10-16T12:53:11.017Z,21.90